sensor_id;sensor_type;location;lat;lon;timestamp;P1;durP1;ratioP1;P2;durP2;ratioP2
38972;SDS011;25333;50.762;4.470;2023-02-01T00:00:15;21.50;;;15.47;;
38972;SDS011;25333;50.762;4.470;2023-02-01T00:02:41;28.37;;;14.97;;
38972;SDS011;25333;50.762;4.470;2023-02-01T00:05:08;24.40;;;14.83;;
38972;SDS011;25333;50.762;4.470;2023-02-01T00:07:34;28.15;;;15.05;;
38972;SDS011;25333;50.762;4.470;2023-02-01T00:10:01;20.77;;;14.20;;
38972;SDS011;25333;50.762;4.470;2023-02-01T00:12:28;22.73;;;14.60;;
38972;SDS011;25333;50.762;4.470;2023-02-01T00:14:53;28.27;;;15.10;;
38972;SDS011;25333;50.762;4.470;2023-02-01T00:17:19;23.77;;;14.25;;
38972;SDS011;25333;50.762;4.470;2023-02-01T00:19:45;30.30;;;14.03;;
38972;SDS011;25333;50.762;4.470;2023-02-01T00:22:10;27.30;;;14.25;;
38972;SDS011;25333;50.762;4.470;2023-02-01T00:24:36;27.10;;;13.73;;
38972;SDS011;25333;50.762;4.470;2023-02-01T00:27:01;21.83;;;12.75;;
38972;SDS011;25333;50.762;4.470;2023-02-01T00:29:27;23.00;;;12.73;;
38972;SDS011;25333;50.762;4.470;2023-02-01T00:31:52;21.02;;;12.13;;
38972;SDS011;25333;50.762;4.470;2023-02-01T00:34:18;21.55;;;11.50;;
38972;SDS011;25333;50.762;4.470;2023-02-01T00:36:45;20.60;;;10.88;;
38972;SDS011;25333;50.762;4.470;2023-02-01T00:39:11;17.83;;;10.83;;
38972;SDS011;25333;50.762;4.470;2023-02-01T00:41:38;18.92;;;9.90;;
38972;SDS011;25333;50.762;4.470;2023-02-01T00:44:03;21.33;;;10.80;;
38972;SDS011;25333;50.762;4.470;2023-02-01T00:46:29;16.77;;;9.77;;
38972;SDS011;25333;50.762;4.470;2023-02-01T00:48:55;17.67;;;9.05;;
38972;SDS011;25333;50.762;4.470;2023-02-01T00:51:21;16.85;;;9.63;;
38972;SDS011;25333;50.762;4.470;2023-02-01T00:53:49;18.38;;;9.77;;
38972;SDS011;25333;50.762;4.470;2023-02-01T00:56:15;18.08;;;8.48;;
38972;SDS011;25333;50.762;4.470;2023-02-01T00:58:41;23.90;;;8.23;;
38972;SDS011;25333;50.762;4.470;2023-02-01T01:01:08;24.48;;;9.35;;
38972;SDS011;25333;50.762;4.470;2023-02-01T01:03:38;20.60;;;8.50;;
38972;SDS011;25333;50.762;4.470;2023-02-01T01:06:06;17.92;;;7.75;;
38972;SDS011;25333;50.762;4.470;2023-02-01T01:08:36;18.40;;;7.60;;
38972;SDS011;25333;50.762;4.470;2023-02-01T01:11:04;17.83;;;8.18;;
38972;SDS011;25333;50.762;4.470;2023-02-01T01:13:33;18.53;;;8.47;;
38972;SDS011;25333;50.762;4.470;2023-02-01T01:16:00;13.50;;;7.47;;
38972;SDS011;25333;50.762;4.470;2023-02-01T01:18:27;19.92;;;7.53;;
38972;SDS011;25333;50.762;4.470;2023-02-01T01:20:54;19.00;;;7.43;;
38972;SDS011;25333;50.762;4.470;2023-02-01T01:23:20;12.63;;;6.72;;
38972;SDS011;25333;50.762;4.470;2023-02-01T01:25:45;16.90;;;6.63;;
38972;SDS011;25333;50.762;4.470;2023-02-01T01:28:11;16.98;;;7.05;;
38972;SDS011;25333;50.762;4.470;2023-02-01T01:30:36;20.43;;;7.30;;
38972;SDS011;25333;50.762;4.470;2023-02-01T01:33:03;18.83;;;6.65;;
38972;SDS011;25333;50.762;4.470;2023-02-01T01:35:29;21.90;;;8.07;;
38972;SDS011;25333;50.762;4.470;2023-02-01T01:37:56;12.68;;;5.95;;
38972;SDS011;25333;50.762;4.470;2023-02-01T01:40:22;15.45;;;6.05;;
38972;SDS011;25333;50.762;4.470;2023-02-01T01:42:48;12.05;;;5.80;;
38972;SDS011;25333;50.762;4.470;2023-02-01T01:45:20;10.00;;;4.47;;
38972;SDS011;25333;50.762;4.470;2023-02-01T01:51:27;17.40;;;5.28;;
38972;SDS011;25333;50.762;4.470;2023-02-01T01:53:35;15.53;;;5.47;;
38972;SDS011;25333;50.762;4.470;2023-02-01T01:56:07;15.38;;;5.45;;
38972;SDS011;25333;50.762;4.470;2023-02-01T01:58:33;14.18;;;4.63;;
38972;SDS011;25333;50.762;4.470;2023-02-01T02:00:59;14.75;;;4.13;;
38972;SDS011;25333;50.762;4.470;2023-02-01T02:03:27;13.02;;;4.45;;
38972;SDS011;25333;50.762;4.470;2023-02-01T02:05:59;11.55;;;4.32;;
38972;SDS011;25333;50.762;4.470;2023-02-01T02:08:27;17.05;;;4.60;;
38972;SDS011;25333;50.762;4.470;2023-02-01T02:10:53;13.75;;;4.03;;
38972;SDS011;25333;50.762;4.470;2023-02-01T02:13:26;15.03;;;3.83;;
38972;SDS011;25333;50.762;4.470;2023-02-01T02:19:04;12.95;;;3.58;;
38972;SDS011;25333;50.762;4.470;2023-02-01T02:38:30;15.88;;;4.43;;
38972;SDS011;25333;50.762;4.470;2023-02-01T02:44:07;17.65;;;4.68;;
38972;SDS011;25333;50.762;4.470;2023-02-01T02:46:59;14.15;;;5.47;;
38972;SDS011;25333;50.762;4.470;2023-02-01T02:52:58;14.95;;;4.68;;
38972;SDS011;25333;50.762;4.470;2023-02-01T02:55:52;15.20;;;4.70;;
38972;SDS011;25333;50.762;4.470;2023-02-01T02:58:36;16.67;;;4.63;;
38972;SDS011;25333;50.762;4.470;2023-02-01T03:01:20;17.70;;;4.05;;
38972;SDS011;25333;50.762;4.470;2023-02-01T03:04:05;19.58;;;3.60;;
38972;SDS011;25333;50.762;4.470;2023-02-01T03:06:34;8.25;;;3.60;;
38972;SDS011;25333;50.762;4.470;2023-02-01T03:09:01;12.73;;;3.92;;
38972;SDS011;25333;50.762;4.470;2023-02-01T03:11:32;15.13;;;4.20;;
38972;SDS011;25333;50.762;4.470;2023-02-01T03:14:16;12.52;;;3.03;;
38972;SDS011;25333;50.762;4.470;2023-02-01T03:16:50;15.43;;;4.32;;
38972;SDS011;25333;50.762;4.470;2023-02-01T03:19:25;18.20;;;4.35;;
38972;SDS011;25333;50.762;4.470;2023-02-01T03:22:03;13.73;;;3.80;;
38972;SDS011;25333;50.762;4.470;2023-02-01T03:24:34;14.35;;;4.15;;
38972;SDS011;25333;50.762;4.470;2023-02-01T03:32:42;11.35;;;3.13;;
38972;SDS011;25333;50.762;4.470;2023-02-01T03:35:36;28.50;;;4.97;;
38972;SDS011;25333;50.762;4.470;2023-02-01T03:38:20;16.92;;;3.83;;
38972;SDS011;25333;50.762;4.470;2023-02-01T03:41:10;13.32;;;4.22;;
38972;SDS011;25333;50.762;4.470;2023-02-01T03:43:39;11.80;;;4.15;;
38972;SDS011;25333;50.762;4.470;2023-02-01T03:46:22;14.52;;;3.88;;
38972;SDS011;25333;50.762;4.470;2023-02-01T03:48:57;18.25;;;4.50;;
38972;SDS011;25333;50.762;4.470;2023-02-01T03:51:27;11.27;;;3.55;;
38972;SDS011;25333;50.762;4.470;2023-02-01T03:53:53;13.68;;;3.67;;
38972;SDS011;25333;50.762;4.470;2023-02-01T03:56:20;12.25;;;3.58;;
38972;SDS011;25333;50.762;4.470;2023-02-01T03:58:48;10.90;;;3.30;;
38972;SDS011;25333;50.762;4.470;2023-02-01T04:01:24;13.87;;;2.47;;
38972;SDS011;25333;50.762;4.470;2023-02-01T04:03:54;15.77;;;3.65;;
38972;SDS011;25333;50.762;4.470;2023-02-01T04:06:20;16.73;;;4.40;;
38972;SDS011;25333;50.762;4.470;2023-02-01T04:08:46;12.10;;;2.93;;
38972;SDS011;25333;50.762;4.470;2023-02-01T04:11:12;11.32;;;3.35;;
38972;SDS011;25333;50.762;4.470;2023-02-01T04:13:37;12.10;;;3.90;;
38972;SDS011;25333;50.762;4.470;2023-02-01T04:16:03;11.40;;;3.53;;
38972;SDS011;25333;50.762;4.470;2023-02-01T04:18:29;13.85;;;4.30;;
38972;SDS011;25333;50.762;4.470;2023-02-01T04:20:54;16.13;;;3.90;;
38972;SDS011;25333;50.762;4.470;2023-02-01T04:23:20;11.27;;;3.17;;
38972;SDS011;25333;50.762;4.470;2023-02-01T04:25:46;11.15;;;3.30;;
38972;SDS011;25333;50.762;4.470;2023-02-01T04:28:11;15.98;;;4.32;;
38972;SDS011;25333;50.762;4.470;2023-02-01T04:30:37;14.57;;;4.10;;
38972;SDS011;25333;50.762;4.470;2023-02-01T04:33:03;13.77;;;4.00;;
38972;SDS011;25333;50.762;4.470;2023-02-01T04:35:31;12.43;;;3.30;;
38972;SDS011;25333;50.762;4.470;2023-02-01T04:37:57;12.30;;;3.47;;
38972;SDS011;25333;50.762;4.470;2023-02-01T04:40:24;13.40;;;3.50;;
38972;SDS011;25333;50.762;4.470;2023-02-01T04:42:49;12.20;;;3.65;;
38972;SDS011;25333;50.762;4.470;2023-02-01T04:45:15;10.30;;;3.53;;
38972;SDS011;25333;50.762;4.470;2023-02-01T04:47:41;11.77;;;3.33;;
38972;SDS011;25333;50.762;4.470;2023-02-01T04:50:06;13.47;;;3.63;;
38972;SDS011;25333;50.762;4.470;2023-02-01T04:52:35;13.80;;;4.30;;
38972;SDS011;25333;50.762;4.470;2023-02-01T04:55:01;12.40;;;2.78;;
38972;SDS011;25333;50.762;4.470;2023-02-01T04:57:27;15.23;;;3.53;;
38972;SDS011;25333;50.762;4.470;2023-02-01T04:59:53;10.70;;;3.13;;
38972;SDS011;25333;50.762;4.470;2023-02-01T05:02:19;9.27;;;3.15;;
38972;SDS011;25333;50.762;4.470;2023-02-01T05:04:44;16.33;;;3.60;;
38972;SDS011;25333;50.762;4.470;2023-02-01T05:07:10;10.77;;;3.40;;
38972;SDS011;25333;50.762;4.470;2023-02-01T05:09:36;11.05;;;3.65;;
38972;SDS011;25333;50.762;4.470;2023-02-01T05:12:02;16.17;;;3.60;;
38972;SDS011;25333;50.762;4.470;2023-02-01T05:14:46;13.35;;;3.78;;
38972;SDS011;25333;50.762;4.470;2023-02-01T05:17:12;16.55;;;3.40;;
38972;SDS011;25333;50.762;4.470;2023-02-01T05:19:38;11.57;;;3.27;;
38972;SDS011;25333;50.762;4.470;2023-02-01T05:22:04;12.73;;;3.40;;
38972;SDS011;25333;50.762;4.470;2023-02-01T05:24:29;12.88;;;3.63;;
38972;SDS011;25333;50.762;4.470;2023-02-01T05:26:55;14.50;;;3.70;;
38972;SDS011;25333;50.762;4.470;2023-02-01T05:29:21;17.30;;;4.50;;
38972;SDS011;25333;50.762;4.470;2023-02-01T05:31:46;8.80;;;3.17;;
38972;SDS011;25333;50.762;4.470;2023-02-01T05:34:13;11.77;;;3.72;;
38972;SDS011;25333;50.762;4.470;2023-02-01T05:36:39;14.55;;;4.05;;
38972;SDS011;25333;50.762;4.470;2023-02-01T05:39:05;11.85;;;3.83;;
38972;SDS011;25333;50.762;4.470;2023-02-01T05:41:31;19.90;;;4.40;;
38972;SDS011;25333;50.762;4.470;2023-02-01T05:43:57;9.85;;;3.15;;
38972;SDS011;25333;50.762;4.470;2023-02-01T05:46:22;15.20;;;3.93;;
38972;SDS011;25333;50.762;4.470;2023-02-01T05:48:48;16.15;;;3.90;;
38972;SDS011;25333;50.762;4.470;2023-02-01T05:51:14;16.83;;;4.28;;
38972;SDS011;25333;50.762;4.470;2023-02-01T05:53:39;14.50;;;4.20;;
38972;SDS011;25333;50.762;4.470;2023-02-01T05:56:05;14.40;;;3.72;;
38972;SDS011;25333;50.762;4.470;2023-02-01T05:58:31;19.65;;;4.03;;
38972;SDS011;25333;50.762;4.470;2023-02-01T06:00:59;16.25;;;3.88;;
38972;SDS011;25333;50.762;4.470;2023-02-01T06:03:25;13.48;;;3.65;;
38972;SDS011;25333;50.762;4.470;2023-02-01T06:05:51;13.02;;;4.18;;
38972;SDS011;25333;50.762;4.470;2023-02-01T06:08:17;17.57;;;3.97;;
38972;SDS011;25333;50.762;4.470;2023-02-01T06:10:43;11.13;;;3.97;;
38972;SDS011;25333;50.762;4.470;2023-02-01T06:13:08;13.20;;;3.83;;
38972;SDS011;25333;50.762;4.470;2023-02-01T06:15:34;12.45;;;3.30;;
38972;SDS011;25333;50.762;4.470;2023-02-01T06:18:02;17.73;;;3.95;;
38972;SDS011;25333;50.762;4.470;2023-02-01T06:20:28;17.55;;;3.97;;
38972;SDS011;25333;50.762;4.470;2023-02-01T06:22:54;13.70;;;3.97;;
38972;SDS011;25333;50.762;4.470;2023-02-01T06:25:22;17.10;;;4.70;;
38972;SDS011;25333;50.762;4.470;2023-02-01T06:27:48;18.15;;;4.32;;
38972;SDS011;25333;50.762;4.470;2023-02-01T06:30:14;17.80;;;4.20;;
38972;SDS011;25333;50.762;4.470;2023-02-01T06:32:39;8.68;;;3.35;;
38972;SDS011;25333;50.762;4.470;2023-02-01T06:35:06;15.60;;;3.40;;
38972;SDS011;25333;50.762;4.470;2023-02-01T06:37:40;12.52;;;4.45;;
38972;SDS011;25333;50.762;4.470;2023-02-01T06:40:09;17.92;;;3.97;;
38972;SDS011;25333;50.762;4.470;2023-02-01T06:42:35;15.35;;;4.70;;
38972;SDS011;25333;50.762;4.470;2023-02-01T06:45:01;15.40;;;4.18;;
38972;SDS011;25333;50.762;4.470;2023-02-01T06:47:27;17.63;;;3.90;;
38972;SDS011;25333;50.762;4.470;2023-02-01T06:49:53;18.75;;;4.13;;
38972;SDS011;25333;50.762;4.470;2023-02-01T06:52:18;22.53;;;5.03;;
38972;SDS011;25333;50.762;4.470;2023-02-01T06:54:44;18.38;;;4.43;;
38972;SDS011;25333;50.762;4.470;2023-02-01T06:57:10;13.63;;;4.15;;
38972;SDS011;25333;50.762;4.470;2023-02-01T06:59:35;17.70;;;4.27;;
38972;SDS011;25333;50.762;4.470;2023-02-01T07:02:01;18.80;;;4.70;;
38972;SDS011;25333;50.762;4.470;2023-02-01T07:04:26;16.90;;;4.15;;
38972;SDS011;25333;50.762;4.470;2023-02-01T07:06:52;15.67;;;4.17;;
38972;SDS011;25333;50.762;4.470;2023-02-01T07:09:18;14.87;;;4.50;;
38972;SDS011;25333;50.762;4.470;2023-02-01T07:11:43;14.88;;;5.30;;
38972;SDS011;25333;50.762;4.470;2023-02-01T07:14:12;18.07;;;4.17;;
38972;SDS011;25333;50.762;4.470;2023-02-01T07:16:38;18.33;;;4.88;;
38972;SDS011;25333;50.762;4.470;2023-02-01T07:19:03;16.50;;;4.67;;
38972;SDS011;25333;50.762;4.470;2023-02-01T07:21:29;17.83;;;4.20;;
38972;SDS011;25333;50.762;4.470;2023-02-01T07:23:55;13.63;;;4.18;;
38972;SDS011;25333;50.762;4.470;2023-02-01T07:26:21;18.05;;;4.47;;
38972;SDS011;25333;50.762;4.470;2023-02-01T07:28:47;15.57;;;4.93;;
38972;SDS011;25333;50.762;4.470;2023-02-01T07:31:14;17.00;;;4.25;;
38972;SDS011;25333;50.762;4.470;2023-02-01T07:33:43;16.23;;;4.20;;
38972;SDS011;25333;50.762;4.470;2023-02-01T07:36:13;17.92;;;4.90;;
38972;SDS011;25333;50.762;4.470;2023-02-01T07:38:40;15.27;;;4.47;;
38972;SDS011;25333;50.762;4.470;2023-02-01T07:41:06;16.45;;;5.00;;
38972;SDS011;25333;50.762;4.470;2023-02-01T07:43:33;19.50;;;4.73;;
38972;SDS011;25333;50.762;4.470;2023-02-01T07:45:59;12.35;;;4.03;;
38972;SDS011;25333;50.762;4.470;2023-02-01T07:48:26;16.63;;;4.10;;
38972;SDS011;25333;50.762;4.470;2023-02-01T07:53:33;13.90;;;3.83;;
38972;SDS011;25333;50.762;4.470;2023-02-01T07:56:00;18.70;;;4.68;;
38972;SDS011;25333;50.762;4.470;2023-02-01T07:58:27;19.25;;;4.97;;
38972;SDS011;25333;50.762;4.470;2023-02-01T08:00:53;21.85;;;6.25;;
38972;SDS011;25333;50.762;4.470;2023-02-01T08:03:38;16.02;;;3.70;;
38972;SDS011;25333;50.762;4.470;2023-02-01T08:06:04;22.95;;;6.22;;
38972;SDS011;25333;50.762;4.470;2023-02-01T08:08:31;18.23;;;4.50;;
38972;SDS011;25333;50.762;4.470;2023-02-01T08:11:01;15.18;;;4.53;;
38972;SDS011;25333;50.762;4.470;2023-02-01T08:13:28;18.15;;;4.90;;
38972;SDS011;25333;50.762;4.470;2023-02-01T08:16:01;15.55;;;4.57;;
38972;SDS011;25333;50.762;4.470;2023-02-01T08:18:28;14.25;;;5.07;;
38972;SDS011;25333;50.762;4.470;2023-02-01T08:20:54;12.47;;;5.07;;
38972;SDS011;25333;50.762;4.470;2023-02-01T08:23:20;19.60;;;5.00;;
38972;SDS011;25333;50.762;4.470;2023-02-01T08:25:47;14.07;;;4.20;;
38972;SDS011;25333;50.762;4.470;2023-02-01T08:28:13;15.07;;;4.50;;
38972;SDS011;25333;50.762;4.470;2023-02-01T08:30:40;14.23;;;4.15;;
38972;SDS011;25333;50.762;4.470;2023-02-01T08:33:08;13.48;;;4.53;;
38972;SDS011;25333;50.762;4.470;2023-02-01T08:35:34;18.88;;;4.50;;
38972;SDS011;25333;50.762;4.470;2023-02-01T08:38:01;13.27;;;4.63;;
38972;SDS011;25333;50.762;4.470;2023-02-01T08:40:27;17.38;;;5.13;;
38972;SDS011;25333;50.762;4.470;2023-02-01T08:42:53;18.42;;;5.20;;
38972;SDS011;25333;50.762;4.470;2023-02-01T08:45:20;14.07;;;4.22;;
38972;SDS011;25333;50.762;4.470;2023-02-01T08:47:49;18.27;;;5.13;;
38972;SDS011;25333;50.762;4.470;2023-02-01T08:50:17;20.55;;;4.80;;
38972;SDS011;25333;50.762;4.470;2023-02-01T08:52:43;14.45;;;5.10;;
38972;SDS011;25333;50.762;4.470;2023-02-01T08:55:09;16.70;;;4.40;;
38972;SDS011;25333;50.762;4.470;2023-02-01T08:57:35;15.93;;;5.00;;
38972;SDS011;25333;50.762;4.470;2023-02-01T09:00:01;16.52;;;4.97;;
38972;SDS011;25333;50.762;4.470;2023-02-01T09:02:28;13.25;;;4.45;;
38972;SDS011;25333;50.762;4.470;2023-02-01T09:04:53;15.68;;;4.60;;
38972;SDS011;25333;50.762;4.470;2023-02-01T09:07:21;12.73;;;4.30;;
38972;SDS011;25333;50.762;4.470;2023-02-01T09:09:46;20.10;;;5.10;;
38972;SDS011;25333;50.762;4.470;2023-02-01T09:12:12;17.40;;;5.10;;
38972;SDS011;25333;50.762;4.470;2023-02-01T09:14:38;21.63;;;4.83;;
38972;SDS011;25333;50.762;4.470;2023-02-01T09:17:03;16.07;;;4.37;;
38972;SDS011;25333;50.762;4.470;2023-02-01T09:19:30;15.05;;;4.43;;
38972;SDS011;25333;50.762;4.470;2023-02-01T09:21:56;13.45;;;4.50;;
38972;SDS011;25333;50.762;4.470;2023-02-01T09:24:24;18.00;;;4.60;;
38972;SDS011;25333;50.762;4.470;2023-02-01T09:26:49;15.80;;;4.77;;
38972;SDS011;25333;50.762;4.470;2023-02-01T09:29:15;16.27;;;4.63;;
38972;SDS011;25333;50.762;4.470;2023-02-01T09:31:41;15.65;;;4.85;;
38972;SDS011;25333;50.762;4.470;2023-02-01T09:34:07;19.37;;;4.70;;
38972;SDS011;25333;50.762;4.470;2023-02-01T09:36:32;10.10;;;3.67;;
38972;SDS011;25333;50.762;4.470;2023-02-01T09:38:59;17.38;;;4.03;;
38972;SDS011;25333;50.762;4.470;2023-02-01T09:41:40;18.75;;;4.47;;
38972;SDS011;25333;50.762;4.470;2023-02-01T09:46:42;16.30;;;4.90;;
38972;SDS011;25333;50.762;4.470;2023-02-01T09:49:12;14.27;;;5.00;;
38972;SDS011;25333;50.762;4.470;2023-02-01T09:51:46;17.80;;;4.70;;
38972;SDS011;25333;50.762;4.470;2023-02-01T09:59:37;12.20;;;3.97;;
38972;SDS011;25333;50.762;4.470;2023-02-01T10:02:24;10.75;;;4.10;;
38972;SDS011;25333;50.762;4.470;2023-02-01T10:04:53;14.47;;;4.93;;
38972;SDS011;25333;50.762;4.470;2023-02-01T10:11:00;9.73;;;3.25;;
38972;SDS011;25333;50.762;4.470;2023-02-01T10:13:59;15.43;;;3.72;;
38972;SDS011;25333;50.762;4.470;2023-02-01T10:22:10;16.20;;;3.47;;
38972;SDS011;25333;50.762;4.470;2023-02-01T10:24:47;14.98;;;3.13;;
38972;SDS011;25333;50.762;4.470;2023-02-01T10:27:30;10.80;;;3.47;;
38972;SDS011;25333;50.762;4.470;2023-02-01T10:30:04;12.85;;;3.60;;
38972;SDS011;25333;50.762;4.470;2023-02-01T10:32:43;15.13;;;3.70;;
38972;SDS011;25333;50.762;4.470;2023-02-01T10:35:21;14.10;;;3.47;;
38972;SDS011;25333;50.762;4.470;2023-02-01T10:37:51;11.43;;;3.35;;
38972;SDS011;25333;50.762;4.470;2023-02-01T10:42:44;10.18;;;2.97;;
38972;SDS011;25333;50.762;4.470;2023-02-01T10:45:16;8.80;;;3.20;;
38972;SDS011;25333;50.762;4.470;2023-02-01T10:47:45;11.27;;;3.00;;
38972;SDS011;25333;50.762;4.470;2023-02-01T10:50:19;13.10;;;3.75;;
38972;SDS011;25333;50.762;4.470;2023-02-01T10:52:56;9.35;;;2.65;;
38972;SDS011;25333;50.762;4.470;2023-02-01T10:57:57;13.77;;;3.28;;
38972;SDS011;25333;50.762;4.470;2023-02-01T11:00:25;5.50;;;2.28;;
38972;SDS011;25333;50.762;4.470;2023-02-01T11:02:51;16.55;;;2.72;;
38972;SDS011;25333;50.762;4.470;2023-02-01T11:05:18;7.75;;;2.45;;
38972;SDS011;25333;50.762;4.470;2023-02-01T11:07:51;9.05;;;2.95;;
38972;SDS011;25333;50.762;4.470;2023-02-01T11:10:38;12.57;;;2.83;;
38972;SDS011;25333;50.762;4.470;2023-02-01T11:13:11;14.23;;;2.78;;
38972;SDS011;25333;50.762;4.470;2023-02-01T11:15:46;9.95;;;2.53;;
38972;SDS011;25333;50.762;4.470;2023-02-01T11:18:24;10.82;;;2.78;;
38972;SDS011;25333;50.762;4.470;2023-02-01T11:20:52;8.48;;;3.28;;
38972;SDS011;25333;50.762;4.470;2023-02-01T11:23:21;9.77;;;2.20;;
38972;SDS011;25333;50.762;4.470;2023-02-01T11:25:49;7.43;;;2.22;;
38972;SDS011;25333;50.762;4.470;2023-02-01T11:28:21;9.05;;;2.60;;
38972;SDS011;25333;50.762;4.470;2023-02-01T11:31:00;9.38;;;2.33;;
38972;SDS011;25333;50.762;4.470;2023-02-01T11:33:32;11.75;;;2.28;;
38972;SDS011;25333;50.762;4.470;2023-02-01T11:36:00;8.88;;;2.70;;
38972;SDS011;25333;50.762;4.470;2023-02-01T11:38:38;13.10;;;2.35;;
38972;SDS011;25333;50.762;4.470;2023-02-01T11:41:11;10.20;;;2.03;;
38972;SDS011;25333;50.762;4.470;2023-02-01T11:43:58;10.88;;;2.20;;
38972;SDS011;25333;50.762;4.470;2023-02-01T11:46:40;9.70;;;2.10;;
38972;SDS011;25333;50.762;4.470;2023-02-01T12:02:11;7.13;;;1.52;;
38972;SDS011;25333;50.762;4.470;2023-02-01T12:15:52;10.32;;;2.13;;
38972;SDS011;25333;50.762;4.470;2023-02-01T12:21:52;8.82;;;1.70;;
38972;SDS011;25333;50.762;4.470;2023-02-01T12:24:48;8.32;;;1.63;;
38972;SDS011;25333;50.762;4.470;2023-02-01T12:44:12;8.30;;;1.87;;
38972;SDS011;25333;50.762;4.470;2023-02-01T12:46:51;8.07;;;2.65;;
38972;SDS011;25333;50.762;4.470;2023-02-01T12:52:17;7.70;;;1.77;;
38972;SDS011;25333;50.762;4.470;2023-02-01T12:58:43;4.65;;;1.10;;
38972;SDS011;25333;50.762;4.470;2023-02-01T13:00:39;6.25;;;1.20;;
38972;SDS011;25333;50.762;4.470;2023-02-01T13:06:02;10.13;;;1.80;;
38972;SDS011;25333;50.762;4.470;2023-02-01T13:11:16;4.25;;;1.05;;
38972;SDS011;25333;50.762;4.470;2023-02-01T13:16:32;7.88;;;1.45;;
38972;SDS011;25333;50.762;4.470;2023-02-01T13:19:19;6.93;;;1.27;;
38972;SDS011;25333;50.762;4.470;2023-02-01T13:22:05;8.68;;;1.35;;
38972;SDS011;25333;50.762;4.470;2023-02-01T13:24:39;7.90;;;1.48;;
38972;SDS011;25333;50.762;4.470;2023-02-01T13:27:17;5.20;;;1.13;;
38972;SDS011;25333;50.762;4.470;2023-02-01T13:29:50;6.07;;;1.55;;
38972;SDS011;25333;50.762;4.470;2023-02-01T13:40:39;5.82;;;1.35;;
38972;SDS011;25333;50.762;4.470;2023-02-01T13:43:08;6.70;;;1.52;;
38972;SDS011;25333;50.762;4.470;2023-02-01T13:45:48;5.13;;;1.00;;
38972;SDS011;25333;50.762;4.470;2023-02-01T13:48:20;6.28;;;1.20;;
38972;SDS011;25333;50.762;4.470;2023-02-01T13:50:55;6.28;;;1.27;;
38972;SDS011;25333;50.762;4.470;2023-02-01T13:53:30;6.05;;;1.35;;
38972;SDS011;25333;50.762;4.470;2023-02-01T13:58:35;10.15;;;1.30;;
38972;SDS011;25333;50.762;4.470;2023-02-01T14:01:47;8.52;;;1.77;;
38972;SDS011;25333;50.762;4.470;2023-02-01T14:03:49;5.00;;;1.37;;
38972;SDS011;25333;50.762;4.470;2023-02-01T14:16:39;5.82;;;1.40;;
38972;SDS011;25333;50.762;4.470;2023-02-01T14:19:24;6.28;;;1.25;;
38972;SDS011;25333;50.762;4.470;2023-02-01T14:22:42;8.98;;;1.67;;
38972;SDS011;25333;50.762;4.470;2023-02-01T14:24:51;10.25;;;1.65;;
38972;SDS011;25333;50.762;4.470;2023-02-01T14:27:22;9.05;;;1.65;;
38972;SDS011;25333;50.762;4.470;2023-02-01T14:29:59;6.03;;;1.60;;
38972;SDS011;25333;50.762;4.470;2023-02-01T14:32:30;6.93;;;1.73;;
38972;SDS011;25333;50.762;4.470;2023-02-01T14:35:00;3.85;;;1.05;;
38972;SDS011;25333;50.762;4.470;2023-02-01T14:37:32;6.03;;;1.10;;
38972;SDS011;25333;50.762;4.470;2023-02-01T14:53:02;8.35;;;1.67;;
38972;SDS011;25333;50.762;4.470;2023-02-01T14:55:45;4.78;;;1.30;;
38972;SDS011;25333;50.762;4.470;2023-02-01T14:58:31;6.97;;;1.55;;
38972;SDS011;25333;50.762;4.470;2023-02-01T15:01:03;9.05;;;1.40;;
38972;SDS011;25333;50.762;4.470;2023-02-01T15:03:45;6.18;;;1.67;;
38972;SDS011;25333;50.762;4.470;2023-02-01T15:06:21;6.93;;;1.83;;
38972;SDS011;25333;50.762;4.470;2023-02-01T15:08:52;8.25;;;1.50;;
38972;SDS011;25333;50.762;4.470;2023-02-01T15:11:21;8.90;;;1.60;;
38972;SDS011;25333;50.762;4.470;2023-02-01T15:13:48;6.43;;;1.80;;
38972;SDS011;25333;50.762;4.470;2023-02-01T15:16:16;7.85;;;2.15;;
38972;SDS011;25333;50.762;4.470;2023-02-01T15:18:42;6.05;;;1.35;;
38972;SDS011;25333;50.762;4.470;2023-02-01T15:21:15;8.88;;;1.60;;
38972;SDS011;25333;50.762;4.470;2023-02-01T15:23:46;7.47;;;2.03;;
38972;SDS011;25333;50.762;4.470;2023-02-01T15:26:29;8.32;;;1.80;;
38972;SDS011;25333;50.762;4.470;2023-02-01T15:28:59;8.57;;;1.95;;
38972;SDS011;25333;50.762;4.470;2023-02-01T15:31:35;6.90;;;1.80;;
38972;SDS011;25333;50.762;4.470;2023-02-01T15:34:03;7.20;;;1.85;;
38972;SDS011;25333;50.762;4.470;2023-02-01T15:36:29;11.70;;;1.80;;
38972;SDS011;25333;50.762;4.470;2023-02-01T15:41:48;11.57;;;1.80;;
38972;SDS011;25333;50.762;4.470;2023-02-01T15:47:06;12.98;;;2.00;;
38972;SDS011;25333;50.762;4.470;2023-02-01T15:49:45;5.75;;;1.77;;
38972;SDS011;25333;50.762;4.470;2023-02-01T15:52:25;8.57;;;1.50;;
38972;SDS011;25333;50.762;4.470;2023-02-01T15:55:02;7.35;;;1.63;;
38972;SDS011;25333;50.762;4.470;2023-02-01T15:57:32;8.88;;;2.05;;
38972;SDS011;25333;50.762;4.470;2023-02-01T16:00:00;5.95;;;2.03;;
38972;SDS011;25333;50.762;4.470;2023-02-01T16:05:04;6.10;;;1.33;;
38972;SDS011;25333;50.762;4.470;2023-02-01T16:07:55;9.07;;;1.80;;
38972;SDS011;25333;50.762;4.470;2023-02-01T16:10:38;6.22;;;2.22;;
38972;SDS011;25333;50.762;4.470;2023-02-01T16:13:09;7.53;;;2.33;;
38972;SDS011;25333;50.762;4.470;2023-02-01T16:15:35;9.43;;;2.50;;
38972;SDS011;25333;50.762;4.470;2023-02-01T16:18:01;7.20;;;1.88;;
38972;SDS011;25333;50.762;4.470;2023-02-01T16:20:26;8.67;;;2.30;;
38972;SDS011;25333;50.762;4.470;2023-02-01T16:22:52;6.88;;;2.20;;
38972;SDS011;25333;50.762;4.470;2023-02-01T16:25:17;10.63;;;2.60;;
38972;SDS011;25333;50.762;4.470;2023-02-01T16:27:43;10.53;;;2.13;;
38972;SDS011;25333;50.762;4.470;2023-02-01T16:30:09;6.72;;;1.75;;
38972;SDS011;25333;50.762;4.470;2023-02-01T16:32:35;8.65;;;1.70;;
38972;SDS011;25333;50.762;4.470;2023-02-01T16:35:03;12.55;;;2.67;;
38972;SDS011;25333;50.762;4.470;2023-02-01T16:37:30;11.55;;;2.70;;
38972;SDS011;25333;50.762;4.470;2023-02-01T16:39:58;6.93;;;1.95;;
38972;SDS011;25333;50.762;4.470;2023-02-01T16:42:24;12.85;;;2.45;;
38972;SDS011;25333;50.762;4.470;2023-02-01T16:44:49;10.35;;;2.33;;
38972;SDS011;25333;50.762;4.470;2023-02-01T16:47:19;7.53;;;2.47;;
38972;SDS011;25333;50.762;4.470;2023-02-01T16:49:46;4.50;;;1.80;;
38972;SDS011;25333;50.762;4.470;2023-02-01T16:52:13;12.43;;;3.08;;
38972;SDS011;25333;50.762;4.470;2023-02-01T16:54:41;7.23;;;2.50;;
38972;SDS011;25333;50.762;4.470;2023-02-01T16:57:11;6.43;;;2.00;;
38972;SDS011;25333;50.762;4.470;2023-02-01T16:59:38;12.13;;;2.72;;
38972;SDS011;25333;50.762;4.470;2023-02-01T17:02:04;9.68;;;2.80;;
38972;SDS011;25333;50.762;4.470;2023-02-01T17:04:30;9.13;;;2.72;;
38972;SDS011;25333;50.762;4.470;2023-02-01T17:06:57;15.57;;;4.03;;
38972;SDS011;25333;50.762;4.470;2023-02-01T17:09:23;11.48;;;2.53;;
38972;SDS011;25333;50.762;4.470;2023-02-01T17:11:50;13.82;;;3.35;;
38972;SDS011;25333;50.762;4.470;2023-02-01T17:14:16;8.90;;;2.15;;
38972;SDS011;25333;50.762;4.470;2023-02-01T17:16:44;11.00;;;2.22;;
38972;SDS011;25333;50.762;4.470;2023-02-01T17:19:16;10.70;;;2.28;;
38972;SDS011;25333;50.762;4.470;2023-02-01T17:21:45;15.45;;;9.43;;
38972;SDS011;25333;50.762;4.470;2023-02-01T17:24:14;10.65;;;2.60;;
38972;SDS011;25333;50.762;4.470;2023-02-01T17:26:41;10.50;;;2.50;;
38972;SDS011;25333;50.762;4.470;2023-02-01T17:29:08;13.00;;;3.33;;
38972;SDS011;25333;50.762;4.470;2023-02-01T17:31:37;9.98;;;2.65;;
38972;SDS011;25333;50.762;4.470;2023-02-01T17:34:05;7.25;;;2.42;;